Time;durP1;ratioP1;P1;durP2;ratioP2;P2;SDS_P1;SDS_P2;PMS_P1;PMS_P2;Temp;Humidity;BMP_temperature;BMP_pressure;BME280_temperature;BME280_humidity;BME280_pressure;Samples;Min_cycle;Max_cycle;Signal;HPM_P1;HPM_P2
2022/06/18 00:00:46;;;;;;;4.13;2.20;;;23.30;60.40;;;;;;5052094;28;20106;-59
2022/06/18 00:03:11;;;;;;;3.53;1.75;;;23.30;60.40;;;;;;5052266;28;20480;-59
2022/06/18 00:05:37;;;;;;;3.28;1.70;;;23.30;60.40;;;;;;5051546;28;20080;-59
2022/06/18 00:08:04;;;;;;;3.42;1.73;;;23.30;60.40;;;;;;5051838;28;20045;-59
2022/06/18 00:10:29;;;;;;;4.10;2.03;;;23.30;60.50;;;;;;5052277;28;20049;-59
2022/06/18 00:15:41;;;;;;;4.57;2.00;;;23.30;60.40;;;;;;5036808;28;20424;-59
2022/06/18 00:18:10;;;;;;;4.13;2.00;;;23.30;60.40;;;;;;5051459;28;20045;-58
2022/06/18 00:20:36;;;;;;;3.13;1.77;;;23.30;60.50;;;;;;5052276;28;20045;-59
2022/06/18 00:23:02;;;;;;;2.47;1.80;;;23.30;60.50;;;;;;5033485;28;20044;-58
2022/06/18 00:25:38;;;;;;;3.00;1.63;;;23.20;60.40;;;;;;5051266;28;20052;-58
2022/06/18 00:28:10;;;;;;;2.78;1.70;;;23.30;60.50;;;;;;5055767;28;20492;-59
2022/06/18 00:30:36;;;;;;;2.75;1.98;;;23.30;60.50;;;;;;5038960;28;20099;-59
2022/06/18 00:33:01;;;;;;;2.70;1.60;;;23.20;60.40;;;;;;5054857;28;20037;-58
2022/06/18 00:35:27;;;;;;;3.22;1.80;;;23.20;60.40;;;;;;5055933;28;20056;-59
2022/06/18 00:37:55;;;;;;;2.63;1.90;;;23.20;60.40;;;;;;5055401;28;20087;-59
2022/06/18 00:40:31;;;;;;;2.70;1.65;;;23.20;60.40;;;;;;5053711;28;20064;-59
2022/06/18 00:43:03;;;;;;;3.85;1.70;;;23.20;60.40;;;;;;5055597;28;20085;-59
2022/06/18 00:45:29;;;;;;;2.10;1.55;;;23.20;60.40;;;;;;5054388;28;20471;-59
2022/06/18 00:48:18;;;;;;;4.00;1.85;;;23.20;60.40;;;;;;5054549;28;20041;-59
2022/06/18 00:50:47;;;;;;;3.28;1.67;;;23.20;60.40;;;;;;5055192;28;20424;-59
2022/06/18 00:53:36;;;;;;;4.47;1.50;;;23.20;60.40;;;;;;5053938;28;20091;-59
2022/06/18 00:56:09;;;;;;;4.38;1.77;;;23.20;60.50;;;;;;5053987;28;20060;-59
2022/06/18 00:58:37;;;;;;;3.17;1.70;;;23.20;60.40;;;;;;5037978;28;20412;-58
2022/06/18 01:01:03;;;;;;;;;;;23.20;60.40;;;;;;5053315;28;20401;-59
2022/06/18 01:03:33;;;;;;;2.33;1.70;;;23.20;60.40;;;;;;5055875;28;19921;-59
2022/06/18 01:06:12;;;;;;;3.70;1.80;;;23.20;60.50;;;;;;5055033;28;20040;-59
2022/06/18 01:08:39;;;;;;;3.40;1.80;;;23.20;60.40;;;;;;5053523;28;20041;-59
2022/06/18 01:11:06;;;;;;;5.00;2.13;;;23.20;60.50;;;;;;5055367;28;20045;-59
2022/06/18 01:13:34;;;;;;;2.70;1.80;;;23.20;60.50;;;;;;5055108;28;20499;-59
2022/06/18 01:15:59;;;;;;;3.08;1.77;;;23.20;60.50;;;;;;5036563;28;20399;-59
2022/06/18 01:18:26;;;;;;;2.72;1.98;;;23.20;60.50;;;;;;5055105;28;20052;-59
2022/06/18 01:20:54;;;;;;;3.30;1.65;;;23.20;60.50;;;;;;5055027;28;20045;-59
2022/06/18 01:23:26;;;;;;;2.65;1.80;;;23.20;60.40;;;;;;5053086;28;20115;-59
2022/06/18 01:25:52;;;;;;;2.08;1.52;;;23.20;60.50;;;;;;5037279;28;20053;-59
2022/06/18 01:28:18;;;;;;;3.55;1.63;;;23.20;60.50;;;;;;5053962;28;20480;-59
2022/06/18 01:30:44;;;;;;;2.20;1.60;;;23.20;60.50;;;;;;5053490;28;20047;-59
2022/06/18 01:33:09;;;;;;;2.90;1.77;;;23.20;60.50;;;;;;5053290;28;20044;-59
2022/06/18 01:35:36;;;;;;;3.83;1.90;;;23.20;60.50;;;;;;5052488;28;20037;-59
2022/06/18 01:38:02;;;;;;;3.05;1.65;;;23.20;60.50;;;;;;5054276;28;20075;-59
2022/06/18 01:41:49;;;;;;;4.07;1.92;;;23.20;60.50;;;;;;5054637;28;20120;-59
2022/06/18 01:43:51;;;;;;;3.40;1.77;;;23.20;60.50;;;;;;5066151;28;20511;-59
2022/06/18 01:46:17;;;;;;;2.65;1.90;;;23.20;60.50;;;;;;5053527;28;20183;-59
2022/06/18 01:48:42;;;;;;;2.78;1.60;;;23.20;60.60;;;;;;5054116;28;20120;-59
2022/06/18 01:51:14;;;;;;;2.40;1.60;;;23.20;60.50;;;;;;5036090;28;20497;-59
2022/06/18 01:53:45;;;;;;;2.85;1.65;;;23.10;60.50;;;;;;5052365;28;20057;-60
2022/06/18 01:56:19;;;;;;;2.90;1.70;;;23.10;60.50;;;;;;5035888;28;20053;-59
2022/06/18 01:59:14;;;;;;;2.97;1.73;;;23.20;60.50;;;;;;5053031;28;20082;-60
2022/06/18 02:01:41;;;;;;;3.42;1.73;;;23.20;60.50;;;;;;5052660;28;20143;-59
2022/06/18 02:04:07;;;;;;;3.58;1.67;;;23.20;60.60;;;;;;5035095;28;20045;-59
2022/06/18 02:06:34;;;;;;;2.13;1.60;;;23.10;60.50;;;;;;5053733;28;20484;-59
2022/06/18 02:09:01;;;;;;;3.78;1.83;;;23.20;60.60;;;;;;5052614;28;20052;-60
2022/06/18 02:11:27;;;;;;;2.75;1.83;;;23.10;60.50;;;;;;5052291;28;20513;-59
2022/06/18 02:14:03;;;;;;;3.05;1.90;;;23.20;60.60;;;;;;5053801;28;20040;-59
2022/06/18 02:16:29;;;;;;;3.85;1.98;;;23.10;60.50;;;;;;5037803;28;20036;-59
2022/06/18 02:18:55;;;;;;;2.90;1.70;;;23.10;60.50;;;;;;5035339;28;20412;-59
2022/06/18 02:21:22;;;;;;;3.58;1.80;;;23.10;60.50;;;;;;5052503;28;20044;-59
2022/06/18 02:23:51;;;;;;;2.35;1.85;;;23.10;60.50;;;;;;5052128;28;20044;-60
2022/06/18 02:26:16;;;;;;;2.72;1.52;;;23.10;60.60;;;;;;5051790;28;20092;-59
2022/06/18 02:28:42;;;;;;;2.38;1.70;;;23.10;60.60;;;;;;5053421;28;20527;-59
2022/06/18 02:31:15;;;;;;;2.92;1.80;;;23.10;60.60;;;;;;5052469;28;20079;-60
2022/06/18 02:34:10;;;;;;;3.53;1.58;;;23.10;60.60;;;;;;5051533;28;20041;-59
2022/06/18 02:36:37;;;;;;;2.80;1.80;;;23.10;60.60;;;;;;5051829;28;20049;-59
2022/06/18 02:39:25;;;;;;;2.85;1.67;;;23.10;60.70;;;;;;5051406;28;20045;-59
2022/06/18 02:41:52;;;;;;;4.18;1.85;;;23.10;60.60;;;;;;5053410;28;20045;-59
2022/06/18 02:44:17;;;;;;;3.47;2.15;;;23.10;60.60;;;;;;5052538;28;20045;-59
2022/06/18 02:46:43;;;;;;;3.20;1.80;;;23.10;60.70;;;;;;5052525;28;20049;-59
2022/06/18 02:49:09;;;;;;;3.22;1.88;;;23.10;60.70;;;;;;5052710;28;20041;-59
2022/06/18 02:51:35;;;;;;;2.45;1.80;;;23.10;61.30;;;;;;5053510;28;20045;-59
2022/06/18 02:54:01;;;;;;;2.78;1.70;;;23.10;60.70;;;;;;5051913;28;20098;-59
2022/06/18 02:56:26;;;;;;;2.60;1.60;;;23.10;60.70;;;;;;5053545;28;20132;-59
2022/06/18 02:58:52;;;;;;;2.60;1.50;;;23.10;60.70;;;;;;5053000;28;20052;-59
2022/06/18 03:01:20;;;;;;;2.88;1.58;;;23.00;60.70;;;;;;5052684;28;20044;-59
2022/06/18 03:03:50;;;;;;;2.60;1.60;;;23.10;60.70;;;;;;5052941;28;20059;-60
2022/06/18 03:06:18;;;;;;;3.65;1.70;;;23.10;60.80;;;;;;5053206;28;20070;-59
2022/06/18 03:08:48;;;;;;;3.33;1.88;;;23.10;60.80;;;;;;5052188;28;20083;-60
2022/06/18 03:13:58;;;;;;;4.35;1.90;;;23.00;60.70;;;;;;5051996;28;20490;-60
2022/06/18 03:16:24;;;;;;;2.45;1.90;;;23.00;60.70;;;;;;5052967;28;20049;-60
2022/06/18 03:18:51;;;;;;;3.20;1.70;;;23.00;60.80;;;;;;5052631;28;20036;-59
2022/06/18 03:21:22;;;;;;;3.30;1.80;;;23.10;60.80;;;;;;5051271;28;20115;-60
2022/06/18 03:23:48;;;;;;;3.47;2.05;;;23.00;60.80;;;;;;5052298;28;20044;-59
2022/06/18 03:26:14;;;;;;;3.13;1.80;;;23.00;60.80;;;;;;5052407;28;20056;-59
2022/06/18 03:28:40;;;;;;;2.40;1.88;;;23.00;60.70;;;;;;5052056;28;20041;-59
2022/06/18 03:31:06;;;;;;;2.85;1.73;;;23.00;60.70;;;;;;5052906;28;20099;-59
2022/06/18 03:33:32;;;;;;;2.28;1.70;;;23.00;60.70;;;;;;5052917;28;20033;-59
2022/06/18 03:35:57;;;;;;;2.00;1.60;;;23.00;60.70;;;;;;5051560;28;20550;-59
2022/06/18 03:38:23;;;;;;;2.90;1.50;;;23.00;60.70;;;;;;5051058;28;20509;-59
2022/06/18 03:40:51;;;;;;;2.90;1.98;;;23.00;60.70;;;;;;5052140;28;20558;-60
2022/06/18 03:43:20;;;;;;;2.50;1.70;;;23.00;60.70;;;;;;5052093;28;20041;-59
2022/06/18 03:45:47;;;;;;;2.35;1.63;;;23.00;60.70;;;;;;5050608;28;20393;-59
2022/06/18 03:48:17;;;;;;;2.60;1.67;;;23.00;60.70;;;;;;5052354;28;20045;-59
2022/06/18 03:50:43;;;;;;;3.70;1.98;;;23.00;60.70;;;;;;5050248;28;20041;-59
2022/06/18 03:53:09;;;;;;;3.38;1.80;;;23.00;60.70;;;;;;5052133;28;20488;-60
2022/06/18 03:55:34;;;;;;;3.00;1.70;;;23.00;60.70;;;;;;5051301;28;20041;-60
2022/06/18 03:58:00;;;;;;;3.70;1.95;;;23.00;60.70;;;;;;5051464;28;20053;-59
2022/06/18 04:00:25;;;;;;;3.67;1.73;;;23.00;60.80;;;;;;5052214;28;20045;-59
2022/06/18 04:02:51;;;;;;;2.95;1.70;;;23.00;60.70;;;;;;5065646;28;20045;-59
2022/06/18 04:05:16;;;;;;;2.28;1.75;;;23.00;60.70;;;;;;5071658;28;20044;-59
2022/06/18 04:07:42;;;;;;;2.85;1.70;;;23.00;60.70;;;;;;5070315;28;20372;-60
2022/06/18 04:10:10;;;;;;;2.55;1.80;;;23.00;60.70;;;;;;5070322;28;20886;-60
2022/06/18 04:12:35;;;;;;;3.03;2.05;;;23.00;60.70;;;;;;5070891;28;20504;-59
2022/06/18 04:15:01;;;;;;;2.63;1.90;;;23.00;60.70;;;;;;5071709;28;20049;-59
2022/06/18 04:17:26;;;;;;;1.92;1.55;;;23.00;60.70;;;;;;5071721;28;20040;-60
2022/06/18 04:19:52;;;;;;;2.45;1.70;;;23.00;60.70;;;;;;5072074;28;20072;-59
2022/06/18 04:22:18;;;;;;;3.33;1.83;;;23.00;60.70;;;;;;5071814;28;20036;-60
2022/06/18 04:24:43;;;;;;;3.17;1.90;;;23.00;60.80;;;;;;5071248;28;20036;-59
2022/06/18 04:27:09;;;;;;;3.40;2.00;;;23.00;60.80;;;;;;5071845;28;20084;-60
2022/06/18 04:29:34;;;;;;;4.15;1.88;;;23.00;60.80;;;;;;5072037;28;20041;-60
2022/06/18 04:32:00;;;;;;;3.25;1.73;;;23.00;60.70;;;;;;5070960;28;20066;-59
2022/06/18 04:34:26;;;;;;;2.80;1.83;;;23.00;60.80;;;;;;5072046;28;20358;-60
2022/06/18 04:36:52;;;;;;;2.85;1.85;;;23.00;60.80;;;;;;5071786;28;20052;-59
2022/06/18 04:39:17;;;;;;;2.78;2.00;;;23.00;60.80;;;;;;5071128;28;20059;-59
2022/06/18 04:41:43;;;;;;;2.33;2.00;;;23.00;60.80;;;;;;5071879;28;20036;-59
2022/06/18 04:44:08;;;;;;;3.45;2.10;;;23.00;60.80;;;;;;5072245;28;20082;-59
2022/06/18 04:46:34;;;;;;;4.05;1.92;;;23.00;60.80;;;;;;5071456;28;20045;-59
2022/06/18 04:49:00;;;;;;;2.45;1.80;;;23.00;60.80;;;;;;5071657;28;20049;-60
2022/06/18 04:51:25;;;;;;;3.13;2.30;;;23.00;60.80;;;;;;5072026;28;20127;-59
2022/06/18 04:53:51;;;;;;;3.25;1.85;;;23.00;60.90;;;;;;5070708;28;20041;-59
2022/06/18 04:56:16;;;;;;;3.42;2.53;;;23.00;60.80;;;;;;5071663;28;20105;-59
2022/06/18 04:58:42;;;;;;;2.60;2.10;;;23.00;60.80;;;;;;5071360;28;20044;-59
2022/06/18 05:01:09;;;;;;;3.28;2.13;;;23.00;60.80;;;;;;5070788;28;20135;-59
2022/06/18 05:03:34;;;;;;;4.03;2.20;;;23.00;60.80;;;;;;5070626;28;20044;-59
2022/06/18 05:06:00;;;;;;;3.13;1.80;;;23.10;60.90;;;;;;5071348;28;20469;-59
2022/06/18 05:08:25;;;;;;;3.03;2.13;;;23.10;60.90;;;;;;5069503;28;20116;-59
2022/06/18 05:10:52;;;;;;;4.03;2.10;;;23.00;60.80;;;;;;5071616;28;20045;-59
2022/06/18 05:13:17;;;;;;;3.38;2.40;;;23.10;60.90;;;;;;5074736;28;20051;-59
2022/06/18 05:15:43;;;;;;;2.97;2.25;;;23.10;60.90;;;;;;5075174;28;20044;-59
2022/06/18 05:18:11;;;;;;;3.30;2.30;;;23.10;60.90;;;;;;5075255;28;20507;-59
2022/06/18 05:20:37;;;;;;;2.70;2.33;;;23.10;60.90;;;;;;5073167;28;20072;-60
2022/06/18 05:23:02;;;;;;;2.92;2.00;;;23.10;60.90;;;;;;5074882;28;20535;-59
2022/06/18 05:25:28;;;;;;;4.80;2.20;;;23.10;60.90;;;;;;5075060;28;20468;-59
2022/06/18 05:27:54;;;;;;;3.22;2.05;;;23.10;61.00;;;;;;5074081;28;20090;-59
2022/06/18 05:30:21;;;;;;;3.50;2.20;;;23.10;60.90;;;;;;5075012;28;20151;-60
2022/06/18 05:32:47;;;;;;;3.13;2.10;;;23.20;61.00;;;;;;5074686;28;20049;-59
2022/06/18 05:35:12;;;;;;;3.88;2.20;;;23.10;61.00;;;;;;5073994;28;20052;-59
2022/06/18 05:37:38;;;;;;;3.63;2.40;;;23.10;61.00;;;;;;5074950;28;20041;-59
2022/06/18 05:40:04;;;;;;;4.25;2.45;;;23.10;61.00;;;;;;5073370;28;20045;-59
2022/06/18 05:42:30;;;;;;;4.25;2.70;;;23.10;61.00;;;;;;5089844;28;20070;-60
2022/06/18 05:44:55;;;;;;;3.80;2.42;;;23.20;61.10;;;;;;5074382;28;20127;-60
2022/06/18 05:47:23;;;;;;;4.53;2.55;;;23.20;61.10;;;;;;5074623;28;20070;-60
2022/06/18 05:49:50;;;;;;;5.13;2.35;;;23.20;61.10;;;;;;5073809;28;20055;-60
2022/06/18 05:52:16;;;;;;;6.73;2.80;;;23.20;61.20;;;;;;5074893;28;20052;-60
2022/06/18 05:54:42;;;;;;;4.32;2.63;;;23.20;61.10;;;;;;5074007;28;20056;-59
2022/06/18 05:57:08;;;;;;;4.22;2.35;;;23.20;61.10;;;;;;5073771;28;20042;-59
2022/06/18 05:59:34;;;;;;;4.75;2.50;;;23.20;61.20;;;;;;5074729;28;20047;-59
2022/06/18 06:01:59;;;;;;;3.00;2.28;;;23.20;61.20;;;;;;5074320;28;20037;-58
2022/06/18 06:04:25;;;;;;;5.10;2.72;;;23.20;61.20;;;;;;5073661;28;20047;-60
2022/06/18 06:06:51;;;;;;;3.60;2.50;;;23.20;61.20;;;;;;5074175;28;20052;-59
2022/06/18 06:11:28;;;;;;;9.75;4.93;;;23.20;61.10;;;;;;5074438;28;20037;-60
2022/06/18 06:12:12;;;;;;;14.32;8.18;;;23.20;61.40;;;;;;5073928;28;20048;-59
2022/06/18 06:14:38;;;;;;;16.17;8.07;;;23.20;61.90;;;;;;5074371;28;20044;-59
2022/06/18 06:17:04;;;;;;;14.50;8.25;;;23.10;62.30;;;;;;5072995;28;20058;-59
2022/06/18 06:19:29;;;;;;;13.95;8.25;;;23.00;62.70;;;;;;5073737;28;20405;-59
2022/06/18 06:21:55;;;;;;;13.25;8.45;;;23.00;63.20;;;;;;5073350;28;20055;-59
2022/06/18 06:24:20;;;;;;;12.88;7.82;;;22.90;63.50;;;;;;5072182;28;20048;-59
2022/06/18 06:26:46;;;;;;;17.42;8.80;;;22.80;63.70;;;;;;5073158;28;20060;-59
2022/06/18 06:29:12;;;;;;;14.82;8.77;;;22.80;64.00;;;;;;5074154;28;20037;-59
2022/06/18 06:31:37;;;;;;;16.45;9.23;;;22.80;64.10;;;;;;5073147;28;20780;-59
2022/06/18 06:34:03;;;;;;;20.52;9.38;;;22.70;64.30;;;;;;5073550;28;20045;-59
2022/06/18 06:36:28;;;;;;;17.90;8.80;;;22.80;64.60;;;;;;5073905;28;20094;-59
2022/06/18 06:38:54;;;;;;;16.70;8.68;;;22.70;64.70;;;;;;5072980;28;20056;-59
2022/06/18 06:41:22;;;;;;;20.65;9.57;;;22.70;64.80;;;;;;5073857;28;20041;-59
2022/06/18 06:43:48;;;;;;;13.88;9.40;;;22.70;65.00;;;;;;5073611;28;20047;-59
2022/06/18 06:46:15;;;;;;;17.23;10.00;;;22.70;65.00;;;;;;5072889;28;20049;-58
2022/06/18 06:48:41;;;;;;;18.10;10.37;;;22.70;65.00;;;;;;5073522;28;20495;-59
2022/06/18 06:51:15;;;;;;;13.20;10.60;;;22.70;65.10;;;;;;5073436;28;20315;-59
2022/06/18 06:53:40;;;;;;;19.15;11.43;;;22.70;65.40;;;;;;5072486;28;20050;-60
2022/06/18 06:58:55;;;;;;;14.55;9.65;;;22.60;65.60;;;;;;5071638;28;20044;-59
2022/06/18 07:01:20;;;;;;;18.92;9.38;;;22.60;65.60;;;;;;5073699;28;20040;-59
2022/06/18 07:03:46;;;;;;;15.15;8.48;;;22.60;65.60;;;;;;5071852;28;20048;-59
2022/06/18 07:06:13;;;;;;;15.70;7.85;;;22.60;65.40;;;;;;5072666;28;20092;-59
2022/06/18 07:08:39;;;;;;;17.10;8.65;;;22.60;65.30;;;;;;5072952;28;20045;-59
2022/06/18 07:11:05;;;;;;;15.57;8.27;;;22.60;65.20;;;;;;5073009;28;20037;-59
2022/06/18 07:13:30;;;;;;;19.48;8.50;;;22.60;65.10;;;;;;5072540;28;20040;-59
2022/06/18 07:15:56;;;;;;;17.52;8.25;;;22.50;65.00;;;;;;5071961;28;20041;-58
2022/06/18 07:18:23;;;;;;;18.83;8.40;;;22.60;65.00;;;;;;5071538;28;20044;-59
2022/06/18 07:20:48;;;;;;;16.55;8.82;;;22.60;65.10;;;;;;5071565;28;20153;-59
2022/06/18 07:23:14;;;;;;;13.15;7.40;;;22.60;65.30;;;;;;5072735;28;20123;-59
2022/06/18 07:25:40;;;;;;;14.80;7.95;;;22.60;65.40;;;;;;5072372;28;20048;-59
2022/06/18 07:28:05;;;;;;;19.63;8.80;;;22.60;65.30;;;;;;5072120;28;20041;-59
2022/06/18 07:30:31;;;;;;;21.70;8.43;;;22.60;65.30;;;;;;5073194;28;20047;-60
2022/06/18 07:32:57;;;;;;;15.65;7.88;;;22.70;65.20;;;;;;5071356;28;20032;-60
2022/06/18 07:35:24;;;;;;;14.05;7.72;;;22.70;65.20;;;;;;5072063;28;20514;-59
2022/06/18 07:37:50;;;;;;;16.65;8.95;;;22.70;65.30;;;;;;5072615;28;20059;-59
2022/06/18 07:40:16;;;;;;;14.05;7.97;;;22.60;65.30;;;;;;5072687;28;20049;-60
2022/06/18 07:42:42;;;;;;;18.90;7.20;;;22.60;65.30;;;;;;5071851;28;20131;-60
2022/06/18 07:45:20;;;;;;;15.32;7.55;;;22.70;65.30;;;;;;5071521;28;20040;-60
2022/06/18 07:47:45;;;;;;;12.67;6.93;;;22.70;65.60;;;;;;5071157;28;20051;-60
2022/06/18 07:50:12;;;;;;;11.82;6.57;;;22.70;65.50;;;;;;5072114;28;20041;-60
2022/06/18 07:52:38;;;;;;;15.43;7.18;;;22.70;65.50;;;;;;5071087;28;20028;-59
2022/06/18 07:55:04;;;;;;;14.45;7.07;;;22.80;65.40;;;;;;5071593;28;20041;-58
2022/06/18 07:57:30;;;;;;;13.15;6.95;;;22.80;65.20;;;;;;5072871;28;20109;-59
2022/06/18 07:59:56;;;;;;;16.33;6.53;;;22.80;65.10;;;;;;5072342;28;20044;-59
2022/06/18 08:02:22;;;;;;;13.57;6.75;;;22.80;64.90;;;;;;5072070;28;20044;-59
2022/06/18 08:04:47;;;;;;;11.02;6.40;;;22.80;64.80;;;;;;5072092;28;20051;-59
2022/06/18 08:07:13;;;;;;;11.95;6.35;;;22.80;64.80;;;;;;5072220;28;20044;-59
2022/06/18 08:09:38;;;;;;;11.80;6.28;;;22.80;64.70;;;;;;5071446;28;20123;-59
2022/06/18 08:12:04;;;;;;;15.20;6.50;;;22.80;64.70;;;;;;5072089;28;20048;-59
2022/06/18 08:14:29;;;;;;;9.95;5.60;;;22.90;64.70;;;;;;5072278;28;20041;-59
2022/06/18 08:16:55;;;;;;;9.98;6.18;;;22.90;64.40;;;;;;5071343;28;20044;-59
2022/06/18 08:19:21;;;;;;;11.50;5.28;;;22.90;64.10;;;;;;5072381;28;20048;-59
2022/06/18 08:21:46;;;;;;;10.85;4.80;;;22.90;64.00;;;;;;5070985;28;20048;-59
2022/06/18 08:24:14;;;;;;;8.32;4.65;;;23.00;63.90;;;;;;5071300;28;20575;-60
2022/06/18 08:26:40;;;;;;;10.00;5.03;;;23.00;63.80;;;;;;5071874;28;20056;-60
2022/06/18 08:29:07;;;;;;;8.65;4.82;;;23.00;63.80;;;;;;5054334;28;20045;-59
2022/06/18 08:31:32;;;;;;;12.80;5.10;;;23.00;63.80;;;;;;5071746;28;20075;-60
2022/06/18 08:33:58;;;;;;;12.25;4.93;;;23.10;63.90;;;;;;5071693;28;20469;-60
2022/06/18 08:36:24;;;;;;;11.52;5.30;;;23.10;64.00;;;;;;5071919;28;20052;-59
2022/06/18 08:38:49;;;;;;;12.48;5.50;;;23.10;64.20;;;;;;5069810;28;20037;-59
2022/06/18 08:41:30;;;;;;;11.25;4.97;;;23.20;64.20;;;;;;5070758;28;20044;-59
2022/06/18 08:44:20;;;;;;;9.38;5.13;;;23.20;64.30;;;;;;5065111;28;20040;-58
2022/06/18 08:47:00;;;;;;;10.10;4.10;;;23.20;64.40;;;;;;5053431;28;20045;-59
2022/06/18 08:49:29;;;;;;;14.45;5.20;;;23.30;64.40;;;;;;5056216;28;20045;-60
2022/06/18 08:52:08;;;;;;;9.18;4.70;;;23.30;64.40;;;;;;5055005;28;20045;-59
2022/06/18 08:54:58;;;;;;;10.27;4.78;;;23.30;64.40;;;;;;5054457;28;20060;-59
2022/06/18 08:57:37;;;;;;;11.23;4.93;;;23.30;64.30;;;;;;5055566;28;20045;-59
2022/06/18 09:00:25;;;;;;;7.38;4.40;;;23.40;64.30;;;;;;5053333;28;20045;-59
2022/06/18 09:03:05;;;;;;;8.88;4.28;;;23.40;64.20;;;;;;5055105;28;20049;-59
2022/06/18 09:06:05;;;;;;;5.75;3.78;;;23.40;64.10;;;;;;5053488;28;20041;-59
2022/06/18 09:08:43;;;;;;;7.68;4.18;;;23.40;64.20;;;;;;5054303;28;20072;-59
2022/06/18 09:11:17;;;;;;;8.70;4.20;;;23.40;64.20;;;;;;5054136;28;20397;-59
2022/06/18 09:13:54;;;;;;;7.60;3.92;;;23.40;64.20;;;;;;5054494;28;20059;-59
2022/06/18 09:16:21;;;;;;;7.28;4.22;;;23.50;64.20;;;;;;5055665;28;20091;-58
2022/06/18 09:18:53;;;;;;;6.97;4.47;;;23.50;64.20;;;;;;5053953;28;20044;-59
2022/06/18 09:21:37;;;;;;;6.78;4.13;;;23.50;64.20;;;;;;5053632;28;20048;-59
2022/06/18 09:24:06;;;;;;;6.40;4.20;;;23.50;64.20;;;;;;5053448;28;20045;-59
2022/06/18 09:26:38;;;;;;;7.28;4.38;;;23.50;64.20;;;;;;5054160;28;20053;-59
2022/06/18 09:29:35;;;;;;;7.88;4.35;;;23.50;64.20;;;;;;5054912;28;20055;-59
2022/06/18 09:32:05;;;;;;;7.13;4.00;;;23.60;64.20;;;;;;5053416;28;20079;-59
2022/06/18 09:34:37;;;;;;;8.50;4.22;;;23.60;64.20;;;;;;5053638;28;20040;-59
2022/06/18 09:37:06;;;;;;;8.95;4.50;;;23.60;64.20;;;;;;5053223;28;20546;-59
2022/06/18 09:39:43;;;;;;;8.07;4.70;;;23.60;64.30;;;;;;5053990;28;20110;-59
2022/06/18 09:42:13;;;;;;;9.37;4.40;;;23.60;64.20;;;;;;5053067;28;20489;-59
2022/06/18 09:44:41;;;;;;;7.78;4.38;;;23.60;64.20;;;;;;5053670;28;20037;-59
2022/06/18 09:47:17;;;;;;;9.95;4.18;;;23.60;64.20;;;;;;5053869;28;20056;-59
2022/06/18 09:49:44;;;;;;;10.93;4.75;;;23.70;64.30;;;;;;5067003;28;20037;-59
2022/06/18 09:52:34;;;;;;;10.73;4.53;;;23.70;64.20;;;;;;5073223;28;20041;-58
2022/06/18 09:55:03;;;;;;;7.97;4.30;;;23.70;64.20;;;;;;5070739;28;20044;-58
2022/06/18 09:57:32;;;;;;;5.38;3.97;;;23.70;64.30;;;;;;5073356;28;20079;-59
2022/06/18 10:00:13;;;;;;;8.30;4.65;;;23.80;64.30;;;;;;5072776;28;20476;-59
2022/06/18 10:03:01;;;;;;;8.23;4.22;;;23.70;64.20;;;;;;5073900;28;20101;-59
2022/06/18 10:08:16;;;;;;;8.18;4.38;;;23.80;64.30;;;;;;5073919;28;20056;-59
2022/06/18 10:10:47;;;;;;;7.97;4.35;;;23.80;64.30;;;;;;5072311;28;20045;-60
2022/06/18 10:13:15;;;;;;;8.13;4.90;;;23.80;64.30;;;;;;5073694;28;20169;-59
2022/06/18 10:15:41;;;;;;;9.35;4.40;;;23.80;64.20;;;;;;5073567;28;20182;-59
2022/06/18 10:18:22;;;;;;;7.78;4.32;;;23.80;64.20;;;;;;5074403;28;20548;-59
2022/06/18 10:21:10;;;;;;;6.68;4.40;;;23.80;64.30;;;;;;5072670;28;20079;-59
2022/06/18 10:23:54;;;;;;;7.05;3.90;;;23.80;64.30;;;;;;5073312;28;20067;-59
2022/06/18 10:26:51;;;;;;;7.25;4.65;;;23.80;64.30;;;;;;5073765;28;20060;-59
2022/06/18 10:29:27;;;;;;;6.68;4.72;;;23.80;64.20;;;;;;5067768;28;20407;-59
2022/06/18 10:32:22;;;;;;;9.07;5.00;;;23.90;64.30;;;;;;5072002;28;20083;-59
2022/06/18 10:35:01;;;;;;;8.68;4.60;;;23.90;64.30;;;;;;5064508;28;20105;-59
2022/06/18 10:37:37;;;;;;;7.03;4.90;;;23.90;64.30;;;;;;5070716;28;20044;-61
2022/06/18 10:40:26;;;;;;;8.45;4.50;;;23.90;64.30;;;;;;5072181;28;20051;-59
2022/06/18 10:43:29;;;;;;;7.07;4.45;;;23.90;64.20;;;;;;5071704;28;20045;-59
2022/06/18 10:46:01;;;;;;;8.05;4.20;;;23.90;64.10;;;;;;5072382;28;20587;-59
2022/06/18 10:48:28;;;;;;;11.23;6.75;;;23.90;64.00;;;;;;5073664;28;20045;-59
2022/06/18 10:50:55;;;;;;;14.95;6.68;;;23.90;64.40;;;;;;5072797;28;20052;-59
2022/06/18 10:53:23;;;;;;;10.20;5.60;;;23.90;64.80;;;;;;5073667;28;20067;-59
2022/06/18 10:56:03;;;;;;;7.90;5.07;;;23.90;64.80;;;;;;5073178;28;20500;-59
2022/06/18 10:58:28;;;;;;;9.60;4.85;;;24.00;64.90;;;;;;5072538;28;20510;-60
2022/06/18 11:01:02;;;;;;;11.02;5.40;;;24.00;64.80;;;;;;5073187;28;20052;-59
2022/06/18 11:03:30;;;;;;;9.35;5.50;;;24.00;65.00;;;;;;5073333;28;20128;-59
2022/06/18 11:05:56;;;;;;;9.82;5.10;;;24.00;65.00;;;;;;5072209;28;20084;-59
2022/06/18 11:08:29;;;;;;;12.20;5.32;;;24.00;64.90;;;;;;5054867;28;20076;-59
2022/06/18 11:10:56;;;;;;;8.43;4.65;;;24.00;64.70;;;;;;5072669;28;20055;-59
2022/06/18 11:13:30;;;;;;;9.70;5.13;;;24.00;64.70;;;;;;5072393;28;20037;-59
2022/06/18 11:16:15;;;;;;;8.40;4.80;;;24.00;64.60;;;;;;5073013;28;20048;-59
2022/06/18 11:18:46;;;;;;;8.10;4.93;;;24.00;64.60;;;;;;5072664;28;20051;-59
2022/06/18 11:21:36;;;;;;;11.32;5.97;;;24.00;64.50;;;;;;5072037;28;20504;-59
2022/06/18 11:24:15;;;;;;;13.45;6.47;;;24.00;64.50;;;;;;5062243;28;20056;-59
2022/06/18 11:26:56;;;;;;;15.55;6.57;;;24.00;64.50;;;;;;5070623;28;20056;-60
2022/06/18 11:29:34;;;;;;;16.10;6.35;;;24.00;64.60;;;;;;5073246;28;20037;-59
2022/06/18 11:32:05;;;;;;;14.95;7.30;;;24.00;64.50;;;;;;5071207;28;20511;-60
2022/06/18 11:34:38;;;;;;;17.95;7.07;;;24.00;64.50;;;;;;5072013;28;20040;-59
2022/06/18 11:37:18;;;;;;;13.55;7.47;;;24.00;64.50;;;;;;5071217;28;20037;-59
2022/06/18 11:39:53;;;;;;;16.90;7.13;;;24.00;64.40;;;;;;5071127;28;20044;-59
2022/06/18 11:42:35;;;;;;;15.55;7.57;;;24.10;64.50;;;;;;5072232;28;20089;-59
2022/06/18 11:45:06;;;;;;;18.15;7.78;;;24.10;64.40;;;;;;5073189;28;20162;-59
2022/06/18 11:47:55;;;;;;;16.63;7.60;;;24.10;64.40;;;;;;5071924;28;20047;-59
2022/06/18 11:50:25;;;;;;;18.08;7.97;;;24.10;64.40;;;;;;5071396;28;20044;-59
2022/06/18 11:53:17;;;;;;;17.05;7.40;;;24.10;64.40;;;;;;5068699;28;20055;-61
2022/06/18 11:55:44;;;;;;;16.30;7.63;;;24.10;64.40;;;;;;5103299;28;20225;-59
2022/06/18 11:58:19;;;;;;;16.92;7.35;;;24.10;64.40;;;;;;5068995;28;20041;-58
2022/06/18 12:00:53;;;;;;;15.18;6.88;;;24.10;64.50;;;;;;5070835;28;20094;-58
2022/06/18 12:03:33;;;;;;;17.63;7.28;;;24.10;64.50;;;;;;5069902;28;20056;-59
2022/06/18 12:06:12;;;;;;;16.67;7.32;;;24.10;64.70;;;;;;5071561;28;20044;-58
2022/06/18 12:08:38;;;;;;;14.90;6.78;;;24.10;64.80;;;;;;5070787;28;20040;-59
2022/06/18 12:11:22;;;;;;;15.40;6.80;;;24.20;64.80;;;;;;5071621;28;20043;-59
2022/06/18 12:13:48;;;;;;;16.60;7.20;;;24.20;64.90;;;;;;5070125;28;20040;-59
2022/06/18 12:16:35;;;;;;;14.10;6.75;;;24.20;64.90;;;;;;5068754;28;20032;-59
2022/06/18 12:19:23;;;;;;;13.20;6.30;;;24.20;64.80;;;;;;5068641;28;20075;-59
2022/06/18 12:21:55;;;;;;;17.03;6.33;;;24.20;64.80;;;;;;5074259;28;20123;-59
2022/06/18 12:24:38;;;;;;;12.80;6.28;;;24.20;64.80;;;;;;5073405;28;20747;-59
2022/06/18 12:27:24;;;;;;;11.70;5.95;;;24.20;64.80;;;;;;5075382;28;20053;-58
2022/06/18 12:30:16;;;;;;;13.65;6.50;;;24.20;64.70;;;;;;5074661;28;20041;-59
2022/06/18 12:32:45;;;;;;;16.35;6.78;;;24.20;64.70;;;;;;5072455;28;20048;-58
2022/06/18 12:35:13;;;;;;;14.63;6.40;;;24.20;64.70;;;;;;5075773;28;20033;-59
2022/06/18 12:38:20;;;;;;;11.98;6.05;;;24.20;64.70;;;;;;5075171;28;20044;-58
2022/06/18 12:41:03;;;;;;;12.52;6.20;;;24.20;64.70;;;;;;5069322;28;20048;-59
2022/06/18 12:43:30;;;;;;;13.48;5.82;;;24.20;64.80;;;;;;5070257;28;20040;-58
2022/06/18 12:45:59;;;;;;;14.52;6.13;;;24.20;64.90;;;;;;5073003;28;20041;-59
2022/06/18 12:48:35;;;;;;;12.68;5.85;;;24.20;64.90;;;;;;5075231;28;20055;-58
2022/06/18 12:51:23;;;;;;;13.80;5.75;;;24.20;64.90;;;;;;5073501;28;20052;-58
2022/06/18 12:54:05;;;;;;;11.73;5.72;;;24.30;64.90;;;;;;5071831;28;20045;-58
2022/06/18 12:56:46;;;;;;;13.45;6.25;;;24.20;64.80;;;;;;5074354;28;20384;-58
2022/06/18 12:59:47;;;;;;;14.02;6.03;;;24.20;65.00;;;;;;5074977;28;20045;-59
2022/06/18 13:02:28;;;;;;;13.13;5.88;;;24.30;64.90;;;;;;5074644;28;20052;-59
2022/06/18 13:04:57;;;;;;;14.63;6.03;;;24.30;65.00;;;;;;5058717;28;20110;-58
2022/06/18 13:07:31;;;;;;;10.68;5.53;;;24.20;65.00;;;;;;5075308;28;20373;-59
2022/06/18 13:09:57;;;;;;;11.77;5.57;;;24.30;65.00;;;;;;5073989;28;20044;-60
2022/06/18 13:12:57;;;;;;;10.80;5.13;;;24.30;64.90;;;;;;5074681;28;20048;-59